createdAt,value
2023-02-06T00:00:16.240Z,93513.88
2023-02-06T00:01:48.228Z,93520.75
2023-02-06T00:03:20.443Z,93525.75
2023-02-06T00:04:52.846Z,93524.38
2023-02-06T00:06:24.340Z,93537.66
2023-02-06T00:07:56.000Z,93543.09
2023-02-06T00:09:27.581Z,93539.66
2023-02-06T00:10:59.115Z,93541.94
2023-02-06T00:12:30.588Z,93536.53
2023-02-06T00:14:02.268Z,93533.28
2023-02-06T00:15:34.022Z,93541.78
2023-02-06T00:17:05.634Z,93534.50
2023-02-06T00:18:37.142Z,93540.19
2023-02-06T00:20:09.208Z,93534.56
2023-02-06T00:21:40.693Z,93533.13
2023-02-06T00:23:12.364Z,93541.22
2023-02-06T00:24:44.058Z,93539.22
2023-02-06T00:26:15.897Z,93533.97
2023-02-06T00:27:47.467Z,93535.78
2023-02-06T00:29:19.046Z,93532.53
2023-02-06T00:30:50.611Z,93538.41
2023-02-06T00:32:22.331Z,93545.84
2023-02-06T00:33:53.871Z,93536.13
2023-02-06T00:35:25.406Z,93523.63
2023-02-06T00:36:57.167Z,93537.56
2023-02-06T00:38:28.943Z,93536.13
2023-02-06T00:40:00.422Z,93534.75
2023-02-06T00:41:31.970Z,93540.97
2023-02-06T00:43:03.522Z,93542.78
2023-02-06T00:44:35.132Z,93540.75
2023-02-06T00:46:06.661Z,93547.81
2023-02-06T00:47:38.203Z,93547.63
2023-02-06T00:49:09.856Z,93553.50
2023-02-06T00:50:41.949Z,93557.91
2023-02-06T00:52:13.439Z,93554.28
2023-02-06T00:53:45.336Z,93558.72
2023-02-06T00:55:16.871Z,93558.13
2023-02-06T00:56:48.538Z,93555.88
2023-02-06T00:58:20.041Z,93561.53
2023-02-06T00:59:52.693Z,93556.09
2023-02-06T01:01:26.480Z,93546.63
2023-02-06T01:02:58.097Z,93557.91
2023-02-06T01:04:29.600Z,93560.75
2023-02-06T01:06:01.206Z,93549.88
2023-02-06T01:07:32.708Z,93548.25
2023-02-06T01:09:04.281Z,93553.50
2023-02-06T01:10:36.294Z,93552.91
2023-02-06T01:12:07.981Z,93551.88
2023-02-06T01:13:39.545Z,93553.69
2023-02-06T01:15:11.556Z,93557.72
2023-02-06T01:16:43.139Z,93550.09
2023-02-06T01:18:15.253Z,93548.47
2023-02-06T01:19:46.779Z,93548.28
2023-02-06T01:21:20.577Z,93551.72
2023-02-06T01:22:52.145Z,93548.31
2023-02-06T01:24:23.726Z,93546.06
2023-02-06T01:25:55.200Z,93547.50
2023-02-06T01:27:26.802Z,93543.44
2023-02-06T01:28:58.269Z,93549.69
2023-02-06T01:30:30.239Z,93548.09
2023-02-06T01:32:02.320Z,93550.72
2023-02-06T01:33:34.041Z,93548.66
2023-02-06T01:35:06.199Z,93549.88
2023-02-06T01:36:37.675Z,93553.09
2023-02-06T01:38:09.147Z,93549.47
2023-02-06T01:39:40.958Z,93544.63
2023-02-06T01:41:12.657Z,93542.00
2023-02-06T01:42:44.829Z,93544.00
2023-02-06T01:44:22.632Z,93536.94
2023-02-06T01:45:54.224Z,93537.53
2023-02-06T01:47:25.730Z,93535.91
2023-02-06T01:48:57.398Z,93539.56
2023-02-06T01:50:29.462Z,93538.75
2023-02-06T01:52:14.457Z,93536.94
2023-02-06T01:53:47.446Z,93536.53
2023-02-06T01:55:18.962Z,93548.25
2023-02-06T01:56:52.498Z,93539.75
2023-02-06T01:58:28.919Z,93545.19
2023-02-06T02:00:01.803Z,93530.47
2023-02-06T02:01:33.329Z,93537.75
2023-02-06T02:03:04.939Z,93529.66
2023-02-06T02:04:36.580Z,93528.47
2023-02-06T02:06:12.752Z,93537.72
2023-02-06T02:07:49.269Z,93534.28
2023-02-06T02:09:20.694Z,93531.47
2023-02-06T02:10:52.977Z,93535.91
2023-02-06T02:12:24.466Z,93540.53
2023-02-06T02:13:56.068Z,93536.47
2023-02-06T02:15:32.255Z,93541.13
2023-02-06T02:17:20.955Z,93546.97
2023-02-06T02:18:58.712Z,93537.06
2023-02-06T02:20:38.577Z,93535.66
2023-02-06T02:22:30.191Z,93535.66
2023-02-06T02:24:20.716Z,93532.22
2023-02-06T02:26:01.475Z,93535.44
2023-02-06T02:27:51.484Z,93531.81
2023-02-06T02:29:36.826Z,93539.84
2023-02-06T02:31:27.013Z,93544.53
2023-02-06T02:33:02.071Z,93541.28
2023-02-06T02:34:39.420Z,93541.09
2023-02-06T02:36:20.900Z,93539.91
2023-02-06T02:37:55.426Z,93547.53
2023-02-06T02:39:31.922Z,93546.94
2023-02-06T02:41:03.427Z,93550.38
2023-02-06T02:42:34.925Z,93546.16
2023-02-06T02:44:10.633Z,93547.78
2023-02-06T02:46:02.469Z,93555.44
2023-02-06T02:47:34.508Z,93560.31
2023-02-06T02:49:08.535Z,93556.44
2023-02-06T02:50:40.772Z,93558.03
2023-02-06T02:52:12.940Z,93557.03
2023-02-06T02:53:44.512Z,93562.44
2023-02-06T02:55:16.891Z,93563.44
2023-02-06T02:56:48.322Z,93563.44
2023-02-06T02:58:21.312Z,93560.19
2023-02-06T02:59:52.912Z,93561.00
2023-02-06T03:01:32.129Z,93565.44
2023-02-06T03:03:03.647Z,93565.81
2023-02-06T03:04:37.653Z,93568.44
2023-02-06T03:06:11.658Z,93568.25
2023-02-06T03:07:53.390Z,93571.84
2023-02-06T03:09:45.970Z,93575.88
2023-02-06T03:11:17.868Z,93578.97
2023-02-06T03:12:51.594Z,93578.53
2023-02-06T03:14:29.134Z,93581.53
2023-02-06T03:16:08.537Z,93589.56
2023-02-06T03:17:44.567Z,93585.94
2023-02-06T03:19:26.509Z,93593.56
2023-02-06T03:20:57.988Z,93588.47
2023-02-06T03:22:29.514Z,93590.84
2023-02-06T03:24:01.545Z,93589.66
2023-02-06T03:25:40.136Z,93592.66
2023-02-06T03:27:12.409Z,93591.66
2023-02-06T03:28:45.401Z,93590.28
2023-02-06T03:30:18.664Z,93600.16
2023-02-06T03:31:52.752Z,93588.84
2023-02-06T03:33:26.170Z,93592.81
2023-02-06T03:35:07.671Z,93593.59
2023-02-06T03:36:39.147Z,93588.50
2023-02-06T03:38:10.681Z,93588.28
2023-02-06T03:39:42.290Z,93593.50
2023-02-06T03:41:14.518Z,93601.00
2023-02-06T03:42:48.753Z,93599.78
2023-02-06T03:44:22.257Z,93589.38
2023-02-06T03:45:55.698Z,93601.47
2023-02-06T03:47:27.268Z,93597.22
2023-02-06T03:48:59.991Z,93593.72
2023-02-06T03:50:31.734Z,93599.72
2023-02-06T03:52:07.154Z,93613.69
2023-02-06T03:53:38.645Z,93608.16
2023-02-06T03:55:11.781Z,93607.84
2023-02-06T03:56:53.156Z,93604.44
2023-02-06T03:58:24.838Z,93605.06
2023-02-06T03:59:56.493Z,93610.34
2023-02-06T04:01:28.023Z,93610.78
2023-02-06T04:02:59.603Z,93607.16
2023-02-06T04:04:38.325Z,93612.03
2023-02-06T04:06:09.860Z,93613.38
2023-02-06T04:07:41.480Z,93612.31
2023-02-06T04:09:13.001Z,93617.78
2023-02-06T04:10:44.589Z,93616.38
2023-02-06T04:12:16.374Z,93619.88
2023-02-06T04:13:47.940Z,93618.25
2023-02-06T04:15:19.541Z,93620.47
2023-02-06T04:16:51.109Z,93629.38
2023-02-06T04:18:24.115Z,93627.63
2023-02-06T04:19:55.636Z,93629.88
2023-02-06T04:21:27.260Z,93632.50
2023-02-06T04:22:58.841Z,93636.28
2023-02-06T04:24:31.125Z,93635.91
2023-02-06T04:26:02.714Z,93633.34
2023-02-06T04:27:34.359Z,93632.78
2023-02-06T04:29:05.924Z,93636.66
2023-02-06T04:30:37.475Z,93636.25
2023-02-06T04:32:09.126Z,93639.50
2023-02-06T04:33:40.608Z,93641.75
2023-02-06T04:35:12.073Z,93644.97
2023-02-06T04:36:43.641Z,93644.53
2023-02-06T04:38:15.225Z,93643.09
2023-02-06T04:39:47.412Z,93648.16
2023-02-06T04:41:18.899Z,93646.97
2023-02-06T04:42:50.577Z,93649.81
2023-02-06T04:44:22.145Z,93646.63
2023-02-06T04:45:54.221Z,93647.06
2023-02-06T04:47:25.881Z,93641.41
2023-02-06T04:48:57.489Z,93653.69
2023-02-06T04:50:31.433Z,93657.66
2023-02-06T04:52:02.986Z,93664.06
2023-02-06T04:53:34.469Z,93668.44
2023-02-06T04:55:06.231Z,93668.19
2023-02-06T04:56:37.733Z,93662.09
2023-02-06T04:58:09.407Z,93669.28
2023-02-06T04:59:40.943Z,93676.50
2023-02-06T05:01:12.508Z,93669.59
2023-02-06T05:02:43.995Z,93675.25
2023-02-06T05:04:15.457Z,93679.47
2023-02-06T05:05:47.028Z,93676.88
2023-02-06T05:07:18.619Z,93675.59
2023-02-06T05:08:50.167Z,93673.56
2023-02-06T05:10:21.903Z,93683.53
2023-02-06T05:11:53.416Z,93677.81
2023-02-06T05:13:24.929Z,93693.84
2023-02-06T05:14:56.378Z,93685.75
2023-02-06T05:16:27.884Z,93684.50
2023-02-06T05:17:59.471Z,93686.63
2023-02-06T05:19:30.929Z,93691.31
2023-02-06T05:21:02.439Z,93697.75
2023-02-06T05:22:33.942Z,93700.66
2023-02-06T05:24:05.477Z,93691.22
2023-02-06T05:25:37.202Z,93698.50
2023-02-06T05:27:08.822Z,93700.53
2023-02-06T05:28:40.313Z,93700.00
2023-02-06T05:30:14.410Z,93697.03
2023-02-06T05:31:46.035Z,93697.81
2023-02-06T05:33:19.001Z,93689.97
2023-02-06T05:34:50.540Z,93686.63
2023-02-06T05:36:22.139Z,93687.09
2023-02-06T05:37:53.768Z,93680.88
2023-02-06T05:39:25.199Z,93688.78
2023-02-06T05:40:56.755Z,93686.34
2023-02-06T05:42:28.328Z,93681.13
2023-02-06T05:43:59.870Z,93683.66
2023-02-06T05:45:31.365Z,93701.06
2023-02-06T05:47:02.908Z,93693.78
2023-02-06T05:48:35.125Z,93697.38
2023-02-06T05:50:06.662Z,93695.75
2023-02-06T05:51:38.182Z,93700.16
2023-02-06T05:53:09.656Z,93688.91
2023-02-06T05:54:41.173Z,93689.91
2023-02-06T05:56:12.705Z,93687.91
2023-02-06T05:57:44.601Z,93691.59
2023-02-06T05:59:16.305Z,93677.81
2023-02-06T06:00:47.911Z,93693.50
2023-02-06T06:02:19.409Z,93695.00
2023-02-06T06:03:50.941Z,93699.50
2023-02-06T06:05:22.476Z,93696.69
2023-02-06T06:06:54.063Z,93712.47
2023-02-06T06:08:25.732Z,93710.03
2023-02-06T06:09:57.336Z,93712.19
2023-02-06T06:11:29.828Z,93709.16
2023-02-06T06:13:01.427Z,93713.38
2023-02-06T06:14:32.956Z,93709.41
2023-02-06T06:16:04.679Z,93707.66
2023-02-06T06:17:36.325Z,93714.47
2023-02-06T06:19:08.267Z,93706.16
2023-02-06T06:20:39.798Z,93710.25
2023-02-06T06:22:12.137Z,93711.97
2023-02-06T06:23:43.621Z,93706.97
2023-02-06T06:25:15.277Z,93709.44
2023-02-06T06:26:46.835Z,93707.53
2023-02-06T06:28:18.570Z,93715.78
2023-02-06T06:29:50.138Z,93719.47
2023-02-06T06:31:21.843Z,93713.28
2023-02-06T06:32:53.478Z,93715.75
2023-02-06T06:34:24.984Z,93722.63
2023-02-06T06:35:56.496Z,93726.50
2023-02-06T06:37:27.960Z,93721.88
2023-02-06T06:38:59.537Z,93720.13
2023-02-06T06:40:31.302Z,93722.00
2023-02-06T06:42:04.891Z,93715.16
2023-02-06T06:43:36.579Z,93712.97
2023-02-06T06:45:08.303Z,93718.25
2023-02-06T06:46:39.831Z,93707.22
2023-02-06T06:48:11.536Z,93707.59
2023-02-06T06:49:43.040Z,93722.50
2023-02-06T06:51:14.770Z,93710.63
2023-02-06T06:52:46.823Z,93714.28
2023-02-06T06:54:19.636Z,93720.41
2023-02-06T06:55:51.144Z,93714.81
2023-02-06T06:57:22.878Z,93721.47
2023-02-06T06:58:55.566Z,93722.28
2023-02-06T07:00:27.089Z,93723.69
2023-02-06T07:01:58.646Z,93730.56
2023-02-06T07:03:30.275Z,93728.34
2023-02-06T07:05:01.816Z,93734.19
2023-02-06T07:06:33.334Z,93738.84
2023-02-06T07:08:05.087Z,93747.72
2023-02-06T07:09:36.668Z,93753.00
2023-02-06T07:11:08.883Z,93742.66
2023-02-06T07:12:40.503Z,93739.84
2023-02-06T07:14:12.045Z,93745.25
2023-02-06T07:15:43.754Z,93748.28
2023-02-06T07:17:15.346Z,93744.28
2023-02-06T07:18:47.480Z,93749.72
2023-02-06T07:20:18.969Z,93745.47
2023-02-06T07:21:50.542Z,93747.72
2023-02-06T07:23:22.141Z,93752.97
2023-02-06T07:24:54.590Z,93750.38
2023-02-06T07:26:26.210Z,93752.44
2023-02-06T07:27:58.147Z,93757.69
2023-02-06T07:29:29.731Z,93757.09
2023-02-06T07:31:05.365Z,93753.94
2023-02-06T07:32:37.073Z,93756.63
2023-02-06T07:34:08.565Z,93748.97
2023-02-06T07:35:41.847Z,93743.56
2023-02-06T07:37:13.490Z,93749.22
2023-02-06T07:38:45.120Z,93748.06
2023-02-06T07:40:16.930Z,93751.50
2023-02-06T07:41:50.553Z,93746.88
2023-02-06T07:43:22.418Z,93756.75
2023-02-06T07:44:53.927Z,93748.88
2023-02-06T07:46:25.662Z,93752.94
2023-02-06T07:47:57.287Z,93748.31
2023-02-06T07:49:29.104Z,93749.94
2023-02-06T07:51:04.303Z,93752.78
2023-02-06T07:52:35.979Z,93753.59
2023-02-06T07:54:07.505Z,93760.84
2023-02-06T07:55:39.291Z,93760.66
2023-02-06T07:57:10.833Z,93758.47
2023-02-06T07:58:42.455Z,93758.03
2023-02-06T08:00:14.254Z,93762.47
2023-02-06T08:01:45.772Z,93757.41
2023-02-06T08:03:17.523Z,93765.53
2023-02-06T08:04:49.079Z,93762.47
2023-02-06T08:07:02.410Z,93770.78
2023-02-06T08:08:33.973Z,93763.72
2023-02-06T08:10:05.813Z,93770.19
2023-02-06T08:11:37.331Z,93767.75
2023-02-06T08:13:08.908Z,93763.53
2023-02-06T08:14:40.460Z,93769.84
2023-02-06T08:16:16.383Z,93769.81
2023-02-06T08:17:48.111Z,93769.81
2023-02-06T08:19:19.604Z,93769.00
2023-02-06T08:20:51.300Z,93762.53
2023-02-06T08:22:22.873Z,93768.38
2023-02-06T08:23:55.326Z,93771.00
2023-02-06T08:25:26.970Z,93768.34
2023-02-06T08:26:58.549Z,93769.78
2023-02-06T08:28:30.426Z,93766.09
2023-02-06T08:42:34.800Z,93761.81
2023-02-06T08:44:07.840Z,93760.75
2023-02-06T08:45:39.358Z,93759.50
2023-02-06T08:47:13.940Z,93751.50
2023-02-06T08:48:45.631Z,93752.69
2023-02-06T08:50:17.272Z,93769.81
2023-02-06T08:51:51.961Z,93765.09
2023-02-06T08:53:23.613Z,93756.31
2023-02-06T08:54:55.363Z,93762.41
2023-02-06T08:56:27.006Z,93773.94
2023-02-06T08:57:58.458Z,93767.50
2023-02-06T08:59:31.087Z,93762.88
2023-02-06T09:01:08.977Z,93764.38
2023-02-06T09:02:40.679Z,93765.13
2023-02-06T09:04:12.999Z,93767.81
2023-02-06T09:05:44.510Z,93765.56
2023-02-06T09:07:17.350Z,93757.88
2023-02-06T09:08:49.002Z,93775.03
2023-02-06T09:10:27.548Z,93771.66
2023-02-06T09:12:03.896Z,93763.56
2023-02-06T09:13:36.344Z,93766.16
2023-02-06T09:15:08.113Z,93764.59
2023-02-06T09:16:39.699Z,93764.59
2023-02-06T09:18:11.794Z,93760.88
2023-02-06T09:19:43.828Z,93759.41
2023-02-06T09:21:16.644Z,93756.16
2023-02-06T09:22:48.324Z,93758.34
2023-02-06T09:24:20.026Z,93760.47
2023-02-06T09:25:51.573Z,93754.03
2023-02-06T09:27:23.094Z,93757.84
2023-02-06T09:28:54.983Z,93754.97
2023-02-06T09:30:26.549Z,93758.41
2023-02-06T09:31:58.208Z,93753.72
2023-02-06T09:33:30.437Z,93754.28
2023-02-06T09:35:04.548Z,93749.38
2023-02-06T09:36:36.921Z,93751.66
2023-02-06T09:38:08.461Z,93753.03
2023-02-06T09:39:40.133Z,93748.88
2023-02-06T09:41:32.488Z,93759.72
2023-02-06T09:43:03.987Z,93750.22
2023-02-06T09:44:46.339Z,93758.41
2023-02-06T09:46:21.408Z,93748.50
2023-02-06T09:48:12.084Z,93748.16
2023-02-06T09:49:44.797Z,93743.19
2023-02-06T09:51:22.332Z,93737.53
2023-02-06T09:53:12.503Z,93748.06
2023-02-06T09:55:05.845Z,93744.47
2023-02-06T09:56:40.284Z,93755.75
2023-02-06T09:58:20.677Z,93739.28
2023-02-06T09:59:56.774Z,93753.31
2023-02-06T10:01:34.237Z,93745.94
2023-02-06T10:03:15.247Z,93745.34
2023-02-06T10:04:49.899Z,93737.06
2023-02-06T10:06:41.485Z,93750.31
2023-02-06T10:08:27.978Z,93740.88
2023-02-06T10:10:01.618Z,93726.00
2023-02-06T10:11:39.405Z,93733.13
2023-02-06T10:13:11.002Z,93734.16
2023-02-06T10:14:47.691Z,93736.72
2023-02-06T10:16:37.171Z,93730.50
2023-02-06T10:18:16.703Z,93731.88
2023-02-06T10:19:53.561Z,93727.63
2023-02-06T10:21:32.659Z,93731.16
2023-02-06T10:23:10.305Z,93724.84
2023-02-06T10:24:43.657Z,93716.09
2023-02-06T10:26:18.738Z,93711.97
2023-02-06T10:27:55.053Z,93720.06
2023-02-06T10:29:36.494Z,93718.44
2023-02-06T10:31:27.112Z,93712.44
2023-02-06T10:33:01.280Z,93724.63
2023-02-06T10:34:52.002Z,93718.91
2023-02-06T10:36:42.329Z,93724.53
2023-02-06T10:38:25.912Z,93720.50
2023-02-06T10:40:19.939Z,93724.75
2023-02-06T10:41:51.615Z,93721.88
2023-02-06T10:43:23.178Z,93718.88
2023-02-06T10:45:19.623Z,93710.69
2023-02-06T10:46:52.200Z,93712.97
2023-02-06T10:48:42.995Z,93722.31
2023-02-06T10:50:33.471Z,93716.00
2023-02-06T10:52:14.879Z,93714.16
2023-02-06T10:54:06.988Z,93717.81
2023-02-06T10:55:43.094Z,93710.91
2023-02-06T10:57:19.462Z,93716.56
2023-02-06T10:58:55.196Z,93708.41
2023-02-06T11:00:27.046Z,93707.72
2023-02-06T11:02:02.176Z,93710.81
2023-02-06T11:03:43.713Z,93702.06
2023-02-06T11:05:19.729Z,93708.97
2023-02-06T11:06:51.368Z,93700.78
2023-02-06T11:08:25.617Z,93704.00
2023-02-06T11:09:57.367Z,93697.78
2023-02-06T11:11:32.082Z,93696.50
2023-02-06T11:13:05.194Z,93692.97
2023-02-06T11:14:37.552Z,93697.31
2023-02-06T11:16:09.786Z,93698.91
2023-02-06T11:17:41.345Z,93696.84
2023-02-06T11:19:26.035Z,93699.81
2023-02-06T11:20:57.828Z,93696.22
2023-02-06T11:22:32.069Z,93697.31
2023-02-06T11:24:09.997Z,93706.31
2023-02-06T11:25:42.487Z,93708.16
2023-02-06T11:27:17.693Z,93695.16
2023-02-06T11:28:50.711Z,93710.13
2023-02-06T11:30:25.076Z,93693.69
2023-02-06T11:31:58.667Z,93703.22
2023-02-06T11:33:36.574Z,93700.66
2023-02-06T11:35:28.535Z,93693.97
2023-02-06T11:37:04.060Z,93690.53
2023-02-06T11:38:35.817Z,93695.75
2023-02-06T11:40:19.355Z,93698.03
2023-02-06T11:41:58.496Z,93695.69
2023-02-06T11:43:34.002Z,93691.44
2023-02-06T11:45:18.075Z,93691.22
2023-02-06T11:46:49.689Z,93687.22
2023-02-06T11:48:31.857Z,93677.84
2023-02-06T11:50:12.491Z,93679.97
2023-02-06T11:51:52.223Z,93681.69
2023-02-06T11:53:23.885Z,93679.28
2023-02-06T11:54:57.152Z,93677.44
2023-02-06T11:56:29.289Z,93687.81
2023-02-06T11:58:12.661Z,93683.78
2023-02-06T12:00:13.588Z,93686.25
2023-02-06T12:01:46.257Z,93679.84
2023-02-06T12:03:29.356Z,93681.47
2023-02-06T12:05:07.280Z,93683.78
2023-02-06T12:06:39.064Z,93679.97
2023-02-06T12:08:11.915Z,93684.47
2023-02-06T12:09:43.436Z,93687.78
2023-02-06T12:11:20.854Z,93687.78
2023-02-06T12:13:02.686Z,93683.06
2023-02-06T12:14:37.049Z,93691.47
2023-02-06T12:16:08.597Z,93691.47
2023-02-06T12:17:44.171Z,93693.06
2023-02-06T12:19:16.917Z,93680.28
2023-02-06T12:20:50.434Z,93686.91
2023-02-06T12:22:22.929Z,93692.22
2023-02-06T12:24:01.735Z,93690.47
2023-02-06T12:25:35.168Z,93684.94
2023-02-06T12:27:12.092Z,93683.06
2023-02-06T12:28:52.614Z,93684.22
2023-02-06T12:30:29.937Z,93686.19
2023-02-06T12:32:09.882Z,93678.25
2023-02-06T12:33:48.052Z,93676.84
2023-02-06T12:35:22.078Z,93678.81
2023-02-06T12:37:00.549Z,93681.19
2023-02-06T12:38:34.664Z,93678.75
2023-02-06T12:40:38.864Z,93680.75
2023-02-06T12:42:27.775Z,93674.47
2023-02-06T12:44:13.072Z,93682.41
2023-02-06T12:45:47.143Z,93688.06
2023-02-06T12:47:24.549Z,93688.41
2023-02-06T12:48:58.919Z,93692.53
2023-02-06T12:50:36.680Z,93695.88
2023-02-06T12:52:12.030Z,93693.69
2023-02-06T12:53:45.943Z,93693.56
2023-02-06T12:55:23.710Z,93696.94
2023-02-06T12:56:57.297Z,93696.13
2023-02-06T12:58:30.401Z,93697.84
2023-02-06T13:00:17.266Z,93698.66
2023-02-06T13:01:52.157Z,93696.16
2023-02-06T13:03:26.252Z,93699.94
2023-02-06T13:04:57.819Z,93704.00
2023-02-06T13:06:30.423Z,93701.13
2023-02-06T13:13:26.589Z,93705.19
2023-02-06T13:14:59.757Z,93711.59
2023-02-06T13:16:42.441Z,93703.88
2023-02-06T13:18:32.746Z,93706.41
2023-02-06T13:20:07.729Z,93710.97
2023-02-06T13:21:39.355Z,93705.91
2023-02-06T13:23:13.850Z,93714.53
2023-02-06T13:24:46.413Z,93706.81
2023-02-06T13:26:18.024Z,93706.00
2023-02-06T13:27:49.596Z,93706.09
2023-02-06T13:29:27.430Z,93710.22
2023-02-06T13:30:59.758Z,93715.72
2023-02-06T13:32:32.364Z,93707.78
2023-02-06T13:34:05.824Z,93704.56
2023-02-06T13:35:37.624Z,93713.22
2023-02-06T13:37:21.359Z,93707.44
2023-02-06T13:38:56.625Z,93705.97
2023-02-06T13:40:30.724Z,93710.75
2023-02-06T13:42:03.798Z,93722.94
2023-02-06T13:43:35.471Z,93725.44
2023-02-06T13:45:07.225Z,93711.75
2023-02-06T13:46:39.498Z,93719.84
2023-02-06T13:48:17.454Z,93717.50
2023-02-06T13:49:49.066Z,93709.13
2023-02-06T13:51:26.846Z,93714.56
2023-02-06T13:53:13.781Z,93718.81
2023-02-06T13:54:48.305Z,93716.84
2023-02-06T13:56:20.041Z,93722.56
2023-02-06T13:57:55.148Z,93721.81
2023-02-06T13:59:30.364Z,93721.63
2023-02-06T14:01:01.909Z,93725.72
2023-02-06T14:02:43.252Z,93728.06
2023-02-06T14:04:27.422Z,93723.66
2023-02-06T14:06:01.732Z,93720.56
2023-02-06T14:07:59.588Z,93717.47
2023-02-06T14:09:38.556Z,93719.63
2023-02-06T14:11:11.372Z,93715.75
2023-02-06T14:12:48.931Z,93723.28
2023-02-06T14:14:27.506Z,93724.94
2023-02-06T14:16:08.109Z,93716.34
2023-02-06T14:17:58.474Z,93721.19
2023-02-06T14:19:39.495Z,93719.34
2023-02-06T14:21:29.910Z,93715.56
2023-02-06T14:23:06.252Z,93719.78
2023-02-06T14:24:47.366Z,93724.75
2023-02-06T14:26:23.073Z,93724.19
2023-02-06T14:28:23.957Z,93721.75
2023-02-06T14:30:02.962Z,93722.78
2023-02-06T14:31:52.905Z,93722.44
2023-02-06T14:33:43.376Z,93723.59
2023-02-06T14:35:20.973Z,93721.09
2023-02-06T14:36:55.425Z,93732.47
2023-02-06T14:43:27.673Z,93736.59
2023-02-06T14:45:06.764Z,93740.16
2023-02-06T14:46:39.630Z,93738.94
2023-02-06T14:48:18.520Z,93740.56
2023-02-06T14:49:50.109Z,93729.53
2023-02-06T14:51:28.958Z,93740.34
2023-02-06T14:53:02.106Z,93741.94
2023-02-06T14:54:34.698Z,93739.97
2023-02-06T14:56:09.193Z,93747.75
2023-02-06T14:57:41.106Z,93740.59
2023-02-06T14:59:15.561Z,93736.34
2023-02-06T15:00:47.231Z,93734.38
2023-02-06T15:02:23.152Z,93728.44
2023-02-06T15:04:07.778Z,93729.63
2023-02-06T15:05:39.330Z,93733.72
2023-02-06T15:07:19.942Z,93735.41
2023-02-06T15:08:51.611Z,93746.69
2023-02-06T15:10:26.553Z,93750.25
2023-02-06T15:11:59.260Z,93758.97
2023-02-06T15:13:38.037Z,93767.53
2023-02-06T15:15:19.788Z,93767.31
2023-02-06T15:16:51.645Z,93765.91
2023-02-06T15:18:23.445Z,93769.84
2023-02-06T15:19:54.988Z,93763.19
2023-02-06T15:21:26.559Z,93760.94
2023-02-06T15:23:11.725Z,93763.97
2023-02-06T15:24:49.810Z,93765.72
2023-02-06T15:26:35.799Z,93766.22
2023-02-06T15:28:09.592Z,93779.28
2023-02-06T15:29:41.266Z,93781.59
2023-02-06T15:31:20.123Z,93787.19
2023-02-06T15:32:52.519Z,93792.94
2023-02-06T15:34:24.803Z,93789.56
2023-02-06T15:35:57.205Z,93789.59
2023-02-06T15:37:32.882Z,93788.13
2023-02-06T15:39:05.370Z,93787.72
2023-02-06T15:40:39.106Z,93781.84
2023-02-06T15:42:11.001Z,93786.53
2023-02-06T15:43:44.412Z,93786.34
2023-02-06T15:45:22.616Z,93789.41
2023-02-06T15:46:54.273Z,93793.91
2023-02-06T15:48:28.135Z,93802.81
2023-02-06T15:50:01.927Z,93807.72
2023-02-06T15:51:40.884Z,93807.72
2023-02-06T15:53:19.045Z,93810.41
2023-02-06T15:54:56.567Z,93808.97
2023-02-06T15:56:29.211Z,93809.00
2023-02-06T15:58:01.573Z,93812.84
2023-02-06T15:59:34.103Z,93830.09
2023-02-06T16:01:05.922Z,93833.13
2023-02-06T16:02:37.750Z,93838.59
2023-02-06T16:04:12.722Z,93856.41
2023-02-06T16:05:44.536Z,93846.50
2023-02-06T16:07:17.830Z,93841.84
2023-02-06T16:08:50.419Z,93844.06
2023-02-06T16:10:22.231Z,93843.88
2023-02-06T16:11:53.891Z,93845.50
2023-02-06T16:13:26.137Z,93843.88
2023-02-06T16:14:58.374Z,93846.69
2023-02-06T16:16:30.029Z,93859.03
2023-02-06T16:18:02.631Z,93855.19
2023-02-06T16:19:39.983Z,93859.66
2023-02-06T16:21:18.235Z,93862.91
2023-02-06T16:22:50.662Z,93865.72
2023-02-06T16:24:22.350Z,93863.31
2023-02-06T16:26:07.545Z,93872.03
2023-02-06T16:27:42.063Z,93873.44
2023-02-06T16:29:18.399Z,93872.22
2023-02-06T16:30:53.704Z,93884.97
2023-02-06T16:32:27.890Z,93880.13
2023-02-06T16:34:05.736Z,93886.78
2023-02-06T16:35:37.276Z,93885.97
2023-02-06T16:37:16.053Z,93890.44
2023-02-06T16:38:57.634Z,93885.56
2023-02-06T16:40:34.909Z,93889.38
2023-02-06T16:42:06.667Z,93894.44
2023-02-06T16:43:38.334Z,93893.59
2023-02-06T16:45:20.823Z,93889.75
2023-02-06T16:46:52.487Z,93889.75
2023-02-06T16:48:23.995Z,93890.34
2023-02-06T16:49:55.561Z,93901.06
2023-02-06T16:51:28.561Z,93902.06
2023-02-06T16:53:02.800Z,93893.72
2023-02-06T16:54:34.739Z,93893.50
2023-02-06T16:56:06.582Z,93896.75
2023-02-06T16:57:41.769Z,93907.66
2023-02-06T16:59:13.423Z,93910.66
2023-02-06T17:00:45.272Z,93910.59
2023-02-06T17:02:16.926Z,93921.00
2023-02-06T17:03:48.964Z,93917.75
2023-02-06T17:05:21.788Z,93914.13
2023-02-06T17:06:53.486Z,93910.50
2023-02-06T17:08:25.054Z,93918.81
2023-02-06T17:09:57.445Z,93916.00
2023-02-06T17:11:29.488Z,93913.19
2023-02-06T17:13:01.081Z,93907.16
2023-02-06T17:14:33.057Z,93921.72
2023-02-06T17:16:04.729Z,93911.19
2023-02-06T17:17:36.257Z,93909.41
2023-02-06T17:19:08.866Z,93928.78
2023-02-06T17:20:41.232Z,93919.28
2023-02-06T17:22:12.773Z,93916.88
2023-02-06T17:23:44.519Z,93920.09
2023-02-06T17:25:16.258Z,93924.97
2023-02-06T17:26:47.769Z,93924.91
2023-02-06T17:28:20.388Z,93931.22
2023-02-06T17:29:53.892Z,93935.50
2023-02-06T17:31:26.081Z,93921.59
2023-02-06T17:32:57.733Z,93939.19
2023-02-06T17:34:30.292Z,93941.22
2023-02-06T17:36:02.104Z,93936.38
2023-02-06T17:37:33.796Z,93939.44
2023-02-06T17:39:05.483Z,93940.44
2023-02-06T17:40:37.542Z,93946.94
2023-02-06T17:42:09.270Z,93948.56
2023-02-06T17:43:40.869Z,93953.00
2023-02-06T17:45:12.348Z,93949.38
2023-02-06T17:46:44.485Z,93942.94
2023-02-06T17:48:16.218Z,93949.16
2023-02-06T17:49:47.843Z,93959.03
2023-02-06T17:51:19.354Z,93953.56
2023-02-06T17:52:52.869Z,93957.03
2023-02-06T17:54:24.424Z,93957.25
2023-02-06T17:55:55.953Z,93953.59
2023-02-06T17:57:29.906Z,93961.47
2023-02-06T17:59:01.999Z,93956.22
2023-02-06T18:00:33.591Z,93968.53
2023-02-06T18:02:05.933Z,93971.34
2023-02-06T18:03:37.454Z,93966.50
2023-02-06T18:05:08.979Z,93965.28
2023-02-06T18:06:40.546Z,93976.16
2023-02-06T18:08:12.428Z,93970.88
2023-02-06T18:09:43.971Z,93969.44
2023-02-06T18:11:16.872Z,93969.56
2023-02-06T18:12:48.369Z,93972.97
2023-02-06T18:14:21.086Z,93963.03
2023-02-06T18:15:53.124Z,93972.50
2023-02-06T18:17:24.767Z,93963.53
2023-02-06T18:18:56.653Z,93961.66
2023-02-06T18:20:28.304Z,93966.06
2023-02-06T18:22:00.293Z,93973.50
2023-02-06T18:23:31.841Z,93966.22
2023-02-06T18:25:05.368Z,93967.78
2023-02-06T18:26:36.927Z,93968.91
2023-02-06T18:28:09.436Z,93960.06
2023-02-06T18:29:49.260Z,93960.91
2023-02-06T18:31:21.288Z,93965.78
2023-02-06T18:32:52.989Z,93970.22
2023-02-06T18:34:24.512Z,93966.41
2023-02-06T18:35:56.058Z,93966.44
2023-02-06T18:37:27.968Z,93963.81
2023-02-06T18:38:59.861Z,93974.31
2023-02-06T18:40:32.240Z,93969.88
2023-02-06T18:42:22.129Z,93961.25
2023-02-06T18:43:53.887Z,93969.13
2023-02-06T18:45:27.227Z,93974.75
2023-02-06T18:46:58.875Z,93980.00
2023-02-06T18:48:30.505Z,93970.34
2023-02-06T18:50:02.187Z,93978.47
2023-02-06T18:51:33.835Z,93978.19